createdAt,value
2019-05-23T00:02:29.635Z,10.30
2019-05-23T00:05:13.221Z,10.20
2019-05-23T00:07:42.133Z,10.47
2019-05-23T00:10:12.259Z,10.43
2019-05-23T00:13:00.849Z,10.17
2019-05-23T00:15:31.898Z,11.47
2019-05-23T00:18:01.814Z,11.07
2019-05-23T00:20:32.528Z,11.60
2019-05-23T00:23:01.903Z,10.27
2019-05-23T00:25:33.362Z,10.73
2019-05-23T00:28:03.265Z,11.23
2019-05-23T00:30:56.220Z,11.40
2019-05-23T00:33:27.196Z,11.80
2019-05-23T00:35:58.576Z,10.80
2019-05-23T00:38:26.096Z,11.23
2019-05-23T00:40:53.648Z,11.53
2019-05-23T00:43:22.009Z,11.07
2019-05-23T00:45:49.406Z,11.93
2019-05-23T00:48:18.124Z,11.60
2019-05-23T00:50:45.749Z,11.73
2019-05-23T00:53:14.267Z,12.00
2019-05-23T00:55:43.442Z,12.00
2019-05-23T00:58:14.418Z,12.23
2019-05-23T01:00:42.928Z,12.73
2019-05-23T01:03:13.922Z,13.13
2019-05-23T01:05:43.131Z,12.50
2019-05-23T01:08:12.176Z,12.20
2019-05-23T01:10:42.192Z,11.43
2019-05-23T01:13:10.004Z,11.97
2019-05-23T01:15:41.331Z,12.03
2019-05-23T01:18:09.624Z,11.57
2019-05-23T01:21:05.898Z,12.20
2019-05-23T01:23:37.410Z,11.67
2019-05-23T01:26:05.255Z,12.10
2019-05-23T01:28:32.900Z,12.23
2019-05-23T01:31:04.535Z,12.23
2019-05-23T01:33:36.127Z,12.80
2019-05-23T01:36:04.722Z,13.03
2019-05-23T01:38:34.500Z,12.53
2019-05-23T01:41:03.008Z,12.43
2019-05-23T01:43:32.438Z,12.73
2019-05-23T01:46:02.177Z,12.20
2019-05-23T01:48:31.472Z,12.63
2019-05-23T01:50:58.869Z,12.67
2019-05-23T01:53:28.251Z,13.13
2019-05-23T01:55:55.745Z,13.33
2019-05-23T01:58:23.117Z,13.13
2019-05-23T02:00:50.620Z,13.80
2019-05-23T02:03:23.127Z,14.13
2019-05-23T02:05:50.481Z,14.30
2019-05-23T02:08:18.581Z,13.27
2019-05-23T02:10:46.668Z,14.00
2019-05-23T02:13:14.111Z,14.87
2019-05-23T02:15:43.371Z,14.33
2019-05-23T02:18:12.592Z,13.13
2019-05-23T02:20:41.976Z,14.40
2019-05-23T02:23:12.874Z,14.13
2019-05-23T02:25:42.154Z,14.50
2019-05-23T02:28:09.547Z,13.33
2019-05-23T02:30:39.988Z,14.60
2019-05-23T02:33:08.825Z,14.93
2019-05-23T02:35:38.720Z,14.67
2019-05-23T02:38:31.548Z,15.93
2019-05-23T02:41:19.351Z,16.07
2019-05-23T02:43:53.435Z,15.97
2019-05-23T02:46:29.181Z,17.63
2019-05-23T02:49:02.044Z,18.67
2019-05-23T02:51:34.796Z,20.80
2019-05-23T02:54:06.706Z,21.30
2019-05-23T02:56:36.978Z,22.17
2019-05-23T02:59:17.226Z,22.23
2019-05-23T03:02:23.468Z,20.30
2019-05-23T03:04:50.959Z,19.33
2019-05-23T03:07:22.850Z,20.50
2019-05-23T03:09:51.997Z,21.00
2019-05-23T03:12:25.139Z,21.93
2019-05-23T03:14:50.872Z,20.90
2019-05-23T03:17:20.389Z,22.17
2019-05-23T03:19:56.576Z,21.77
2019-05-23T03:22:30.348Z,22.97
2019-05-23T03:25:02.631Z,22.30
2019-05-23T03:27:36.331Z,22.07
2019-05-23T03:33:47.674Z,20.10
2019-05-23T03:36:16.892Z,20.00
2019-05-23T03:38:45.116Z,18.10
2019-05-23T03:41:14.400Z,19.03
2019-05-23T03:43:42.282Z,18.13
2019-05-23T03:46:12.023Z,17.23
2019-05-23T03:48:40.917Z,17.20
2019-05-23T03:51:10.894Z,17.40
2019-05-23T03:53:39.204Z,14.97
2019-05-23T03:56:09.104Z,14.50
2019-05-23T03:58:37.510Z,13.80
2019-05-23T04:01:07.190Z,12.93
2019-05-23T04:03:34.729Z,10.83
2019-05-23T04:06:02.887Z,11.40
2019-05-23T04:08:31.377Z,10.50
2019-05-23T04:10:58.709Z,10.50
2019-05-23T04:13:27.983Z,9.50
2019-05-23T04:15:55.601Z,9.43
2019-05-23T04:18:24.401Z,9.50
2019-05-23T04:20:51.869Z,9.80
2019-05-23T04:23:20.224Z,10.63
2019-05-23T04:25:49.400Z,10.07
2019-05-23T04:28:16.846Z,9.70
2019-05-23T04:30:44.433Z,9.73
2019-05-23T04:33:11.830Z,9.77
2019-05-23T04:35:39.078Z,9.93
2019-05-23T04:38:06.518Z,10.23
2019-05-23T04:40:34.598Z,9.97
2019-05-23T04:43:01.999Z,9.17
2019-05-23T04:45:29.813Z,9.70
2019-05-23T04:47:57.326Z,7.80
2019-05-23T04:50:25.052Z,8.37
2019-05-23T04:52:54.513Z,7.90
2019-05-23T04:55:24.016Z,8.50
2019-05-23T04:57:51.883Z,9.50
2019-05-23T05:00:23.617Z,9.43
2019-05-23T05:02:53.188Z,9.83
2019-05-23T05:05:22.359Z,10.20
2019-05-23T05:07:49.726Z,9.17
2019-05-23T05:10:23.062Z,10.57
2019-05-23T05:12:52.320Z,10.30
2019-05-23T05:15:19.878Z,10.37
2019-05-23T05:17:47.966Z,10.67
2019-05-23T05:20:16.131Z,9.30
2019-05-23T05:22:43.734Z,10.00
2019-05-23T05:25:12.412Z,9.50
2019-05-23T05:27:39.891Z,9.00
2019-05-23T05:30:08.977Z,8.00
2019-05-23T05:32:57.679Z,7.93
2019-05-23T05:35:28.854Z,7.37
2019-05-23T05:37:56.909Z,8.80
2019-05-23T05:40:24.429Z,8.27
2019-05-23T05:42:53.335Z,8.70
2019-05-23T05:45:20.714Z,8.67
2019-05-23T05:47:48.145Z,8.57
2019-05-23T05:50:15.940Z,8.60
2019-05-23T05:52:43.293Z,8.10
2019-05-23T05:55:11.487Z,8.97
2019-05-23T05:57:38.890Z,8.73
2019-05-23T06:00:12.838Z,9.30
2019-05-23T06:02:39.861Z,7.97
2019-05-23T06:05:10.907Z,8.00
2019-05-23T06:07:40.480Z,8.07
2019-05-23T06:10:11.642Z,8.73
2019-05-23T06:12:39.021Z,8.73
2019-05-23T06:15:06.602Z,8.07
2019-05-23T06:17:34.184Z,7.03
2019-05-23T06:20:01.582Z,7.93
2019-05-23T06:22:30.254Z,7.40
2019-05-23T06:24:58.292Z,7.53
2019-05-23T06:27:25.852Z,7.13
2019-05-23T06:29:53.341Z,7.47
2019-05-23T06:32:22.721Z,7.03
2019-05-23T06:34:50.668Z,6.90
2019-05-23T06:37:19.076Z,7.50
2019-05-23T06:39:46.705Z,7.20
2019-05-23T06:42:14.093Z,7.47
2019-05-23T06:44:41.474Z,7.10
2019-05-23T06:47:10.831Z,7.00
2019-05-23T06:49:38.479Z,7.37
2019-05-23T06:52:05.860Z,7.13
2019-05-23T06:54:33.277Z,7.67
2019-05-23T06:57:00.675Z,7.73
2019-05-23T06:59:28.152Z,8.10
2019-05-23T07:01:56.611Z,6.73
2019-05-23T07:04:24.111Z,6.50
2019-05-23T07:06:51.527Z,6.63
2019-05-23T07:09:20.430Z,7.23
2019-05-23T07:11:48.364Z,7.13
2019-05-23T07:14:15.829Z,7.27
2019-05-23T07:16:43.262Z,7.40
2019-05-23T07:19:11.690Z,6.73
2019-05-23T07:21:39.049Z,6.93
2019-05-23T07:24:08.180Z,6.40
2019-05-23T07:26:35.554Z,6.97
2019-05-23T07:29:04.617Z,7.83
2019-05-23T07:31:35.453Z,7.57
2019-05-23T07:34:02.636Z,7.90
2019-05-23T07:36:32.178Z,6.93
2019-05-23T07:39:00.886Z,6.57
2019-05-23T07:41:28.747Z,6.80
2019-05-23T07:43:56.155Z,6.43
2019-05-23T07:46:23.494Z,6.83
2019-05-23T07:48:50.906Z,7.40
2019-05-23T07:51:18.375Z,6.33
2019-05-23T07:54:05.584Z,6.63
2019-05-23T07:56:34.361Z,7.53
2019-05-23T07:59:01.770Z,7.20
2019-05-23T08:01:31.465Z,6.80
2019-05-23T08:04:18.015Z,6.83
2019-05-23T08:06:30.765Z,7.20
2019-05-23T08:08:58.282Z,7.20
2019-05-23T08:11:26.935Z,7.07
2019-05-23T08:13:54.422Z,6.47
2019-05-23T08:16:24.041Z,6.80
2019-05-23T08:18:51.453Z,6.77
2019-05-23T08:21:20.762Z,7.37
2019-05-23T08:23:48.122Z,6.60
2019-05-23T08:26:17.901Z,6.87
2019-05-23T08:29:00.930Z,7.17
2019-05-23T08:31:15.011Z,7.30
2019-05-23T08:33:42.378Z,7.00
2019-05-23T08:36:09.856Z,6.43
2019-05-23T08:38:37.355Z,6.33
2019-05-23T08:41:07.666Z,6.83
2019-05-23T08:43:35.018Z,7.07
2019-05-23T08:46:02.923Z,6.97
2019-05-23T08:48:32.146Z,6.13
2019-05-23T08:50:59.554Z,7.10
2019-05-23T08:53:27.506Z,6.97
2019-05-23T08:55:56.194Z,6.67
2019-05-23T08:58:24.256Z,6.77
2019-05-23T09:00:51.855Z,7.37
2019-05-23T09:03:19.510Z,6.83
2019-05-23T09:05:48.695Z,7.20
2019-05-23T09:08:17.802Z,5.93
2019-05-23T09:10:45.518Z,6.00
2019-05-23T09:13:14.706Z,5.93
2019-05-23T09:15:42.481Z,5.87
2019-05-23T09:18:11.044Z,5.77
2019-05-23T09:20:39.114Z,5.33
2019-05-23T09:23:06.981Z,4.90
2019-05-23T09:25:34.501Z,5.20
2019-05-23T09:28:03.293Z,4.90
2019-05-23T09:30:31.903Z,5.20
2019-05-23T09:32:59.390Z,5.20
2019-05-23T09:35:27.820Z,4.87
2019-05-23T09:37:55.208Z,4.60
2019-05-23T09:40:22.681Z,4.87
2019-05-23T09:42:50.082Z,4.70
2019-05-23T09:45:17.486Z,4.87
2019-05-23T09:47:44.972Z,4.63
2019-05-23T09:50:15.374Z,4.43
2019-05-23T09:52:43.061Z,4.40
2019-05-23T09:55:11.409Z,4.83
2019-05-23T09:57:38.789Z,4.00
2019-05-23T10:00:08.669Z,4.30
2019-05-23T10:02:36.264Z,4.10
2019-05-23T10:05:04.632Z,3.33
2019-05-23T10:07:33.043Z,3.83
2019-05-23T10:10:00.460Z,3.73
2019-05-23T10:12:27.851Z,3.40
2019-05-23T10:14:55.254Z,3.50
2019-05-23T10:17:23.806Z,3.50
2019-05-23T10:19:51.156Z,3.40
2019-05-23T10:22:18.571Z,3.67
2019-05-23T10:24:46.096Z,3.20
2019-05-23T10:27:13.696Z,3.20
2019-05-23T10:29:41.143Z,3.00
2019-05-23T10:32:10.514Z,3.10
2019-05-23T10:34:37.908Z,3.33
2019-05-23T10:37:07.328Z,3.33
2019-05-23T10:39:34.808Z,3.00
2019-05-23T10:42:02.244Z,2.93
2019-05-23T10:44:31.424Z,2.73
2019-05-23T10:46:58.988Z,3.37
2019-05-23T10:49:26.491Z,2.60
2019-05-23T10:51:53.903Z,2.43
2019-05-23T10:54:21.296Z,2.00
2019-05-23T10:56:48.683Z,2.20
2019-05-23T10:59:16.076Z,2.13
2019-05-23T11:01:43.424Z,2.00
2019-05-23T11:04:10.797Z,2.10
2019-05-23T11:06:38.331Z,2.10
2019-05-23T11:09:09.250Z,2.30
2019-05-23T11:11:36.755Z,2.40
2019-05-23T11:14:08.765Z,2.13
2019-05-23T11:16:38.617Z,2.00
2019-05-23T11:19:07.358Z,2.10
2019-05-23T11:21:34.760Z,1.80
2019-05-23T11:24:02.799Z,1.77
2019-05-23T11:26:30.212Z,1.73
2019-05-23T11:28:57.810Z,1.80
2019-05-23T11:31:25.555Z,1.47
2019-05-23T11:33:53.111Z,1.60
2019-05-23T11:36:35.059Z,1.53
2019-05-23T11:38:49.693Z,1.50
2019-05-23T11:41:17.583Z,1.70
2019-05-23T11:43:45.058Z,2.10
2019-05-23T11:46:30.757Z,1.80
2019-05-23T11:48:58.578Z,1.83
2019-05-23T11:51:26.233Z,1.60
2019-05-23T11:54:06.506Z,1.80
2019-05-23T11:56:23.080Z,1.50
2019-05-23T11:58:50.458Z,1.67
2019-05-23T12:01:22.525Z,1.70
2019-05-23T12:03:54.646Z,1.70
2019-05-23T12:06:25.917Z,2.10
2019-05-23T12:08:51.593Z,1.60
2019-05-23T12:11:19.131Z,1.70
2019-05-23T12:13:46.510Z,1.93
2019-05-23T12:16:14.836Z,1.80
2019-05-23T12:18:44.091Z,1.57
2019-05-23T12:21:11.675Z,1.90
2019-05-23T12:23:39.090Z,1.77
2019-05-23T12:26:06.483Z,1.70
2019-05-23T12:28:33.977Z,1.70
2019-05-23T12:31:01.732Z,2.07
2019-05-23T12:33:29.094Z,1.57
2019-05-23T12:35:56.537Z,2.03
2019-05-23T12:38:23.951Z,1.40
2019-05-23T12:40:51.929Z,1.67
2019-05-23T12:43:19.362Z,1.53
2019-05-23T12:45:46.742Z,1.50
2019-05-23T12:48:37.301Z,1.60
2019-05-23T12:51:05.014Z,1.63
2019-05-23T12:53:32.431Z,1.40
2019-05-23T12:55:59.916Z,1.67
2019-05-23T12:58:58.425Z,1.60
2019-05-23T13:01:28.202Z,1.53
2019-05-23T13:03:56.397Z,1.30
2019-05-23T13:06:24.031Z,1.30
2019-05-23T13:08:51.716Z,1.60
2019-05-23T13:11:19.077Z,1.43
2019-05-23T13:13:46.426Z,1.57
2019-05-23T13:16:13.890Z,1.37
2019-05-23T13:18:41.284Z,1.60
2019-05-23T13:21:09.214Z,1.50
2019-05-23T13:23:36.624Z,1.53
2019-05-23T13:26:04.662Z,1.80
2019-05-23T13:28:32.128Z,1.70
2019-05-23T13:30:59.517Z,1.50
2019-05-23T13:33:27.513Z,1.60
2019-05-23T13:35:54.934Z,1.47
2019-05-23T13:38:22.330Z,1.50
2019-05-23T13:40:49.695Z,1.60
2019-05-23T13:43:17.193Z,1.63
2019-05-23T13:45:45.797Z,1.73
2019-05-23T13:48:13.253Z,1.77
2019-05-23T13:50:40.706Z,1.60
2019-05-23T13:53:09.108Z,1.83
2019-05-23T13:55:37.392Z,3.37
2019-05-23T13:58:04.778Z,7.67
2019-05-23T14:00:34.379Z,8.87
2019-05-23T14:03:01.852Z,13.53
2019-05-23T14:05:29.543Z,7.00
2019-05-23T14:08:11.353Z,8.93
2019-05-23T14:10:26.732Z,14.80
2019-05-23T14:12:54.096Z,9.70
2019-05-23T14:15:24.092Z,21.23
2019-05-23T14:17:51.713Z,6.00
2019-05-23T14:20:20.151Z,29.67
2019-05-23T14:23:04.389Z,23.80
2019-05-23T14:25:51.054Z,8.73
2019-05-23T14:28:18.763Z,6.27
2019-05-23T14:31:02.540Z,3.60
2019-05-23T14:33:43.455Z,2.40
2019-05-23T14:36:17.601Z,2.13
2019-05-23T14:38:45.748Z,1.60
2019-05-23T14:41:13.097Z,2.20
2019-05-23T14:43:41.009Z,1.93
2019-05-23T14:46:11.539Z,1.63
2019-05-23T14:48:49.923Z,2.00
2019-05-23T14:54:53.706Z,2.00
2019-05-23T15:00:50.306Z,2.10
2019-05-23T15:03:18.090Z,1.80
2019-05-23T15:05:45.500Z,1.80
2019-05-23T15:08:13.138Z,1.67
2019-05-23T15:10:40.666Z,2.10
2019-05-23T15:13:08.299Z,1.93
2019-05-23T15:15:35.614Z,1.70
2019-05-23T15:18:03.062Z,1.70
2019-05-23T15:20:30.635Z,1.93
2019-05-23T15:22:59.979Z,2.00
2019-05-23T15:25:27.580Z,1.80
2019-05-23T15:27:55.365Z,1.80
2019-05-23T15:30:22.999Z,1.90
2019-05-23T15:32:50.369Z,1.90
2019-05-23T15:35:17.943Z,1.70
2019-05-23T15:37:45.480Z,1.60
2019-05-23T15:40:12.974Z,1.90
2019-05-23T15:42:40.367Z,1.80
2019-05-23T15:45:07.820Z,1.80
2019-05-23T15:47:35.744Z,1.83
2019-05-23T15:50:10.934Z,1.77
2019-05-23T15:53:10.515Z,1.90
2019-05-23T15:56:26.012Z,1.80
2019-05-23T15:59:10.688Z,1.87
2019-05-23T16:01:47.554Z,2.00
2019-05-23T16:04:16.127Z,1.90
2019-05-23T16:06:43.628Z,1.90
2019-05-23T16:09:27.867Z,1.90
2019-05-23T16:11:41.445Z,1.80
2019-05-23T16:14:08.977Z,1.80
2019-05-23T16:16:36.485Z,1.90
2019-05-23T16:19:05.782Z,2.00
2019-05-23T16:21:33.533Z,1.53
